Time;durP1;ratioP1;P1;durP2;ratioP2;P2;SDS_P1;SDS_P2;PMS_P1;PMS_P2;Temp;Humidity;BMP_temperature;BMP_pressure;BME280_temperature;BME280_humidity;BME280_pressure;Samples;Min_cycle;Max_cycle;Signal;HPM_P1;HPM_P2
2023/09/07 00:19:50;;;;;;;15.70;11.75;;;21.30;99.90;;;;;;4564998;19;20027;-74
2023/09/07 00:21:27;;;;;;;16.60;12.48;;;21.30;99.90;;;;;;4593105;19;20006;-73
2023/09/07 00:23:01;;;;;;;15.32;11.85;;;21.30;99.90;;;;;;4593119;19;20002;-73
2023/09/07 00:24:36;;;;;;;14.98;10.95;;;21.20;99.90;;;;;;4591938;19;20003;-74
2023/09/07 00:26:15;;;;;;;18.25;13.70;;;21.20;99.90;;;;;;4593122;19;20302;-73
2023/09/07 00:27:49;;;;;;;16.55;12.35;;;21.20;99.90;;;;;;4593045;19;20040;-73
2023/09/07 00:29:23;;;;;;;17.17;11.95;;;21.20;99.90;;;;;;4592693;19;20010;-74
2023/09/07 00:30:58;;;;;;;20.50;11.90;;;21.20;99.90;;;;;;4592746;19;20010;-73
2023/09/07 00:32:34;;;;;;;17.20;12.63;;;21.20;99.90;;;;;;4593189;19;20317;-73
2023/09/07 00:34:08;;;;;;;13.18;10.70;;;21.20;99.90;;;;;;4591630;19;20010;-73
2023/09/07 00:35:43;;;;;;;15.77;12.35;;;21.20;99.90;;;;;;4592647;19;20291;-73
2023/09/07 00:37:17;;;;;;;15.75;11.75;;;21.20;99.90;;;;;;4593101;19;20007;-73
2023/09/07 00:38:55;;;;;;;17.33;12.05;;;21.20;99.90;;;;;;4591786;19;20002;-73
2023/09/07 00:40:31;;;;;;;16.67;11.90;;;21.20;99.90;;;;;;4591484;19;20006;-73
2023/09/07 00:42:05;;;;;;;16.17;11.32;;;21.20;99.90;;;;;;4591440;19;20025;-73
2023/09/07 00:43:40;;;;;;;16.10;11.85;;;21.20;99.90;;;;;;4591876;19;20003;-73
2023/09/07 00:45:17;;;;;;;15.20;11.48;;;21.20;99.90;;;;;;4592779;19;20006;-73
2023/09/07 00:46:51;;;;;;;14.63;11.35;;;21.20;99.90;;;;;;4592895;19;19998;-73
2023/09/07 00:48:26;;;;;;;14.65;11.43;;;21.20;99.90;;;;;;4592600;19;20063;-73
2023/09/07 00:50:02;;;;;;;15.27;11.45;;;21.20;99.90;;;;;;4592137;19;20014;-73
2023/09/07 00:51:36;;;;;;;19.05;12.57;;;21.20;99.90;;;;;;4591725;19;20022;-73
2023/09/07 00:53:12;;;;;;;17.67;12.73;;;21.20;99.90;;;;;;4592149;19;20006;-73
2023/09/07 00:54:48;;;;;;;16.48;12.88;;;21.20;99.90;;;;;;4591225;19;20040;-73
2023/09/07 00:56:23;;;;;;;14.60;11.68;;;21.20;99.90;;;;;;4592108;19;19998;-73
2023/09/07 00:57:57;;;;;;;15.77;11.18;;;21.20;99.90;;;;;;4592445;19;20006;-73
2023/09/07 00:59:34;;;;;;;15.55;11.55;;;21.20;99.90;;;;;;4592007;19;20017;-73
2023/09/07 01:01:09;;;;;;;14.75;11.45;;;21.20;99.90;;;;;;4591132;19;20013;-73
2023/09/07 01:02:44;;;;;;;17.55;11.73;;;21.20;99.90;;;;;;4590971;19;20007;-73
2023/09/07 01:04:20;;;;;;;16.95;11.75;;;21.20;99.90;;;;;;4591163;19;20007;-73
2023/09/07 01:06:04;;;;;;;15.57;12.55;;;21.20;99.90;;;;;;4592554;19;19998;-73
2023/09/07 01:07:46;;;;;;;17.48;11.98;;;21.20;99.90;;;;;;4592583;19;20007;-73
2023/09/07 01:09:24;;;;;;;13.38;10.50;;;21.20;99.90;;;;;;4592232;19;20438;-73
2023/09/07 01:10:58;;;;;;;13.70;9.77;;;21.20;99.90;;;;;;4590928;19;20010;-73
2023/09/07 01:12:32;;;;;;;11.65;9.38;;;21.20;99.90;;;;;;4591793;19;20002;-73
2023/09/07 01:14:07;;;;;;;13.23;9.80;;;21.20;99.90;;;;;;4590927;19;20013;-73
2023/09/07 01:15:49;;;;;;;14.38;10.70;;;21.20;99.90;;;;;;4589945;19;20003;-73
2023/09/07 01:17:23;;;;;;;;;;;21.20;99.90;;;;;;4593004;19;20015;-73
2023/09/07 01:18:59;;;;;;;14.27;9.63;;;21.10;99.90;;;;;;4592065;19;19938;-73
2023/09/07 01:20:34;;;;;;;13.00;10.05;;;21.20;99.90;;;;;;4590888;19;20034;-73
2023/09/07 01:22:09;;;;;;;12.25;10.23;;;21.10;99.90;;;;;;4590962;19;20003;-73
2023/09/07 01:23:45;;;;;;;13.10;9.13;;;21.10;99.90;;;;;;4591142;19;20029;-73
2023/09/07 01:25:19;;;;;;;13.10;10.32;;;21.10;99.90;;;;;;4591985;19;20429;-73
2023/09/07 01:26:54;;;;;;;14.75;11.07;;;21.10;99.90;;;;;;4591918;19;20006;-73
2023/09/07 01:28:30;;;;;;;13.55;9.13;;;21.10;99.90;;;;;;4592010;19;20421;-73
2023/09/07 01:30:05;;;;;;;14.82;10.70;;;21.10;99.90;;;;;;4591034;19;20084;-73
2023/09/07 01:31:39;;;;;;;13.88;9.80;;;21.10;99.90;;;;;;4591901;19;20306;-73
2023/09/07 01:33:14;;;;;;;12.52;10.20;;;21.10;99.90;;;;;;4590825;19;20010;-73
2023/09/07 01:34:49;;;;;;;13.40;10.63;;;21.10;99.90;;;;;;4590740;19;20002;-73
2023/09/07 01:36:23;;;;;;;15.00;9.52;;;21.10;99.90;;;;;;4591646;19;20028;-73
2023/09/07 01:37:58;;;;;;;12.02;9.25;;;21.10;99.90;;;;;;4591812;19;20027;-73
2023/09/07 01:39:33;;;;;;;11.95;10.60;;;21.10;99.90;;;;;;4591550;19;20002;-73
2023/09/07 01:41:07;;;;;;;13.02;10.15;;;21.10;99.90;;;;;;4591698;19;20023;-73
2023/09/07 01:42:43;;;;;;;11.60;10.18;;;21.10;99.90;;;;;;4591748;19;20006;-73
2023/09/07 01:44:17;;;;;;;14.80;10.05;;;21.10;99.90;;;;;;4590955;19;20006;-73
2023/09/07 01:45:51;;;;;;;14.43;10.77;;;21.10;99.90;;;;;;4591898;19;19999;-73
2023/09/07 01:47:27;;;;;;;13.98;10.55;;;21.10;99.90;;;;;;4591856;19;20070;-73
2023/09/07 01:49:02;;;;;;;15.70;10.93;;;21.10;99.90;;;;;;4591594;19;19995;-73
2023/09/07 01:50:36;;;;;;;17.63;12.55;;;21.10;99.90;;;;;;4591570;19;20015;-73
2023/09/07 01:52:11;;;;;;;17.17;12.68;;;21.10;99.90;;;;;;4591832;19;20418;-73
2023/09/07 01:53:50;;;;;;;17.88;13.88;;;21.10;99.90;;;;;;4591483;19;20003;-73
2023/09/07 01:55:24;;;;;;;18.30;13.65;;;21.10;99.90;;;;;;4590258;19;19998;-73
2023/09/07 01:56:59;;;;;;;18.33;13.10;;;21.10;99.90;;;;;;4591593;19;20090;-73
2023/09/07 01:58:34;;;;;;;16.70;12.63;;;21.10;99.90;;;;;;4591542;19;20489;-73
2023/09/07 02:00:09;;;;;;;20.10;12.35;;;21.10;99.90;;;;;;4590417;19;20017;-73
2023/09/07 02:01:44;;;;;;;15.30;11.32;;;21.10;99.90;;;;;;4591486;19;20013;-73
2023/09/07 02:03:20;;;;;;;17.58;11.55;;;21.10;99.90;;;;;;4591177;19;20003;-73
2023/09/07 02:04:54;;;;;;;12.13;9.93;;;21.10;99.90;;;;;;4591357;19;20021;-73
2023/09/07 02:06:30;;;;;;;12.93;10.27;;;21.10;99.90;;;;;;4591368;19;20009;-73
2023/09/07 02:08:04;;;;;;;14.85;10.98;;;21.10;99.90;;;;;;4591290;19;20026;-73
2023/09/07 02:09:38;;;;;;;12.57;9.77;;;21.10;99.90;;;;;;4590617;19;20003;-73
2023/09/07 02:11:16;;;;;;;13.68;9.77;;;21.10;99.90;;;;;;4590162;19;20388;-73
2023/09/07 02:12:52;;;;;;;14.85;9.80;;;21.10;99.90;;;;;;4591205;19;20348;-73
2023/09/07 02:14:26;;;;;;;13.63;9.68;;;21.10;99.90;;;;;;4589913;19;20069;-73
2023/09/07 02:16:08;;;;;;;12.52;9.43;;;21.10;99.90;;;;;;4590931;19;20002;-73
2023/09/07 02:17:47;;;;;;;12.43;9.48;;;21.10;99.90;;;;;;4591165;19;19994;-73
2023/09/07 02:19:22;;;;;;;13.80;9.10;;;21.00;99.90;;;;;;4590683;19;20013;-73
2023/09/07 02:21:03;;;;;;;10.30;9.23;;;21.10;99.90;;;;;;4591188;19;20007;-73
2023/09/07 02:22:37;;;;;;;11.93;9.00;;;21.10;99.90;;;;;;4591430;19;20003;-73
2023/09/07 02:24:13;;;;;;;11.52;8.90;;;21.10;99.90;;;;;;4589491;19;20089;-73
2023/09/07 02:25:49;;;;;;;13.15;9.85;;;21.10;99.90;;;;;;4590888;19;20027;-73
2023/09/07 02:27:23;;;;;;;10.88;9.68;;;21.10;99.90;;;;;;4595157;19;20010;-73
2023/09/07 02:28:59;;;;;;;14.25;9.20;;;21.10;99.90;;;;;;4595354;19;20003;-73
2023/09/07 02:30:34;;;;;;;12.55;10.07;;;21.00;99.90;;;;;;4593862;19;20337;-73
2023/09/07 02:32:09;;;;;;;12.23;9.55;;;21.10;99.90;;;;;;4595368;19;20017;-73
2023/09/07 02:33:43;;;;;;;10.88;9.48;;;21.10;99.90;;;;;;4595413;19;19998;-73
2023/09/07 02:35:19;;;;;;;11.27;9.18;;;21.10;99.90;;;;;;4595426;19;20025;-73
2023/09/07 02:36:53;;;;;;;9.40;8.40;;;21.10;99.90;;;;;;4595297;19;20314;-73
2023/09/07 02:38:28;;;;;;;9.35;8.32;;;21.10;99.90;;;;;;4595339;19;20073;-73
2023/09/07 02:40:13;;;;;;;12.68;8.88;;;21.10;99.90;;;;;;4594201;19;20010;-73
2023/09/07 02:41:47;;;;;;;10.68;7.72;;;21.10;99.90;;;;;;4595275;19;20013;-73
2023/09/07 02:43:22;;;;;;;11.20;8.20;;;21.00;99.90;;;;;;4595267;19;20002;-73
2023/09/07 02:44:58;;;;;;;11.13;8.23;;;21.00;99.90;;;;;;4595205;19;20007;-73
2023/09/07 02:46:32;;;;;;;12.35;8.63;;;21.10;99.90;;;;;;4595138;19;20010;-73
2023/09/07 02:48:06;;;;;;;10.65;8.10;;;21.00;99.90;;;;;;4595052;19;20010;-73
2023/09/07 02:49:42;;;;;;;9.60;7.55;;;21.00;99.90;;;;;;4593019;19;20305;-73
2023/09/07 02:51:16;;;;;;;8.45;7.55;;;21.00;99.90;;;;;;4594956;19;20418;-73
2023/09/07 02:52:50;;;;;;;9.45;7.93;;;21.00;99.90;;;;;;4593706;19;20018;-73
2023/09/07 02:54:27;;;;;;;12.02;8.25;;;21.00;99.90;;;;;;4594665;19;20436;-73
2023/09/07 02:56:04;;;;;;;10.50;7.78;;;21.00;99.90;;;;;;4595180;19;20328;-73
2023/09/07 02:57:39;;;;;;;9.43;7.50;;;21.00;99.90;;;;;;4593620;19;19998;-73
2023/09/07 02:59:14;;;;;;;10.70;8.25;;;21.00;99.90;;;;;;4594284;19;20018;-73
2023/09/07 03:00:48;;;;;;;10.07;8.02;;;21.00;99.90;;;;;;4594823;19;20010;-73
2023/09/07 03:02:23;;;;;;;12.40;9.13;;;21.00;99.90;;;;;;4594767;19;20001;-73
2023/09/07 03:04:00;;;;;;;9.63;8.40;;;21.00;99.90;;;;;;4594335;19;20079;-73
2023/09/07 03:05:34;;;;;;;10.50;8.27;;;21.00;99.90;;;;;;4594703;19;20070;-73
2023/09/07 03:07:10;;;;;;;11.18;9.00;;;21.00;99.90;;;;;;4594911;19;20070;-73
2023/09/07 03:08:45;;;;;;;11.93;9.02;;;21.00;99.90;;;;;;4594716;19;20066;-73
2023/09/07 03:10:19;;;;;;;11.27;8.93;;;21.00;99.90;;;;;;4593363;19;19998;-73
2023/09/07 03:11:53;;;;;;;10.00;8.63;;;21.00;99.90;;;;;;4594581;19;20009;-73
2023/09/07 03:13:29;;;;;;;10.80;8.80;;;21.00;99.90;;;;;;4593493;19;20010;-73
2023/09/07 03:15:05;;;;;;;14.23;10.73;;;21.00;99.90;;;;;;4593421;19;20467;-73
2023/09/07 03:16:39;;;;;;;12.60;10.25;;;21.00;99.90;;;;;;4593224;19;20039;-73
2023/09/07 03:18:15;;;;;;;12.20;9.60;;;21.00;99.90;;;;;;4594444;19;20382;-73
2023/09/07 03:19:49;;;;;;;12.43;10.00;;;21.00;99.90;;;;;;4593593;19;20018;-73
2023/09/07 03:21:29;;;;;;;11.80;10.10;;;21.00;99.90;;;;;;4594614;19;19998;-73
2023/09/07 03:23:07;;;;;;;11.88;9.73;;;21.00;99.90;;;;;;4594441;19;20301;-73
2023/09/07 03:24:41;;;;;;;9.55;8.35;;;21.00;99.90;;;;;;4591916;19;20333;-73
2023/09/07 03:26:16;;;;;;;9.52;8.05;;;21.00;99.90;;;;;;4594203;19;20003;-73
2023/09/07 03:27:52;;;;;;;9.95;8.75;;;21.00;99.90;;;;;;4594624;19;20007;-73
2023/09/07 03:29:26;;;;;;;9.55;7.55;;;21.00;99.90;;;;;;4593804;19;20018;-73
2023/09/07 03:31:01;;;;;;;10.38;7.85;;;21.00;99.90;;;;;;4594422;19;20003;-73
2023/09/07 03:32:37;;;;;;;8.77;7.63;;;21.00;99.90;;;;;;4594255;19;20003;-73
2023/09/07 03:34:10;;;;;;;9.10;7.88;;;21.00;99.90;;;;;;4594103;19;20003;-73
2023/09/07 03:35:45;;;;;;;7.90;7.07;;;21.00;99.90;;;;;;4594114;19;20003;-73
2023/09/07 03:37:20;;;;;;;10.35;7.53;;;21.00;99.90;;;;;;4594104;19;20007;-73
2023/09/07 03:38:54;;;;;;;11.07;8.55;;;21.00;99.90;;;;;;4592825;19;20328;-73
2023/09/07 03:40:28;;;;;;;10.85;7.43;;;21.00;99.90;;;;;;4592698;19;20003;-73
2023/09/07 03:42:04;;;;;;;9.27;7.38;;;21.00;99.90;;;;;;4594070;19;20026;-73
2023/09/07 03:43:38;;;;;;;9.88;7.22;;;21.00;99.90;;;;;;4593581;19;20003;-73
2023/09/07 03:45:12;;;;;;;10.27;8.57;;;21.00;99.90;;;;;;4593909;19;20014;-73
2023/09/07 03:46:48;;;;;;;10.50;7.68;;;21.00;99.90;;;;;;4593932;19;20066;-73
2023/09/07 03:48:22;;;;;;;12.30;8.27;;;21.00;99.90;;;;;;4594110;19;20318;-73
2023/09/07 03:49:57;;;;;;;10.15;8.20;;;21.10;99.90;;;;;;4592932;19;20014;-73
2023/09/07 03:51:32;;;;;;;12.80;7.53;;;21.10;99.90;;;;;;4592512;19;20438;-73
2023/09/07 03:53:06;;;;;;;9.93;7.70;;;21.20;99.90;;;;;;4592402;19;20070;-73
2023/09/07 03:54:41;;;;;;;9.95;8.60;;;21.20;99.90;;;;;;4593372;19;20021;-73
2023/09/07 03:56:16;;;;;;;9.20;7.43;;;21.30;99.90;;;;;;4594014;19;20010;-74
2023/09/07 03:57:50;;;;;;;9.57;7.70;;;21.40;99.90;;;;;;4594133;19;20010;-73
2023/09/07 03:59:25;;;;;;;8.65;7.18;;;21.50;99.90;;;;;;4593507;19;20294;-73
2023/09/07 04:01:00;;;;;;;9.18;6.95;;;21.50;99.90;;;;;;4592278;19;20020;-73
2023/09/07 04:02:35;;;;;;;10.75;7.45;;;21.60;99.90;;;;;;4593230;19;20009;-73
2023/09/07 04:04:09;;;;;;;8.75;7.88;;;21.60;99.90;;;;;;4593055;19;20422;-73
2023/09/07 04:05:45;;;;;;;7.65;6.85;;;21.70;99.90;;;;;;4593834;19;20358;-73
2023/09/07 04:07:20;;;;;;;8.95;7.28;;;21.70;99.90;;;;;;4593464;19;20039;-73
2023/09/07 04:08:54;;;;;;;9.15;7.00;;;21.70;99.90;;;;;;4593437;19;20003;-73
2023/09/07 04:10:30;;;;;;;9.38;7.18;;;21.70;99.90;;;;;;4592571;19;20011;-73
2023/09/07 04:12:06;;;;;;;9.30;6.82;;;21.80;99.90;;;;;;4593593;19;20006;-73
2023/09/07 04:13:42;;;;;;;9.77;6.88;;;21.70;99.90;;;;;;4593405;19;20023;-73
2023/09/07 04:15:17;;;;;;;8.95;7.35;;;21.70;99.90;;;;;;4593594;19;20006;-73
2023/09/07 04:16:51;;;;;;;8.65;7.05;;;21.80;99.90;;;;;;4593171;19;20010;-73
2023/09/07 04:18:26;;;;;;;8.93;6.53;;;21.80;99.90;;;;;;4593229;19;20003;-73
2023/09/07 04:20:02;;;;;;;10.00;7.28;;;21.80;99.90;;;;;;4592089;19;20010;-73
2023/09/07 04:21:37;;;;;;;12.20;8.23;;;21.90;99.90;;;;;;4593509;19;20019;-78
2023/09/07 04:23:13;;;;;;;9.20;8.10;;;21.90;99.90;;;;;;4593143;19;20005;-73
2023/09/07 04:24:50;;;;;;;8.75;7.28;;;21.90;99.90;;;;;;4592011;19;20002;-73
2023/09/07 04:26:24;;;;;;;9.82;7.25;;;21.80;99.90;;;;;;4592964;19;20002;-73
2023/09/07 04:27:59;;;;;;;8.05;6.75;;;21.80;99.90;;;;;;4591661;19;20003;-73
2023/09/07 04:29:34;;;;;;;8.65;6.50;;;21.70;99.90;;;;;;4592547;19;20015;-73
2023/09/07 04:31:08;;;;;;;9.30;7.18;;;21.70;99.90;;;;;;4593244;19;20353;-73
2023/09/07 04:32:42;;;;;;;9.48;7.18;;;21.70;99.90;;;;;;4592901;19;20019;-73
2023/09/07 04:34:18;;;;;;;8.75;6.88;;;21.70;99.90;;;;;;4592942;19;20006;-73
2023/09/07 04:35:52;;;;;;;8.40;6.82;;;21.70;99.90;;;;;;4593205;19;19994;-75
2023/09/07 04:37:27;;;;;;;7.72;6.82;;;21.80;99.90;;;;;;4591795;19;20363;-73
2023/09/07 04:39:03;;;;;;;9.68;7.18;;;21.80;99.90;;;;;;4591533;19;20030;-73
2023/09/07 04:40:37;;;;;;;12.80;9.07;;;21.80;99.90;;;;;;4592450;19;20035;-73
2023/09/07 04:42:11;;;;;;;23.95;15.00;;;21.90;99.90;;;;;;4592761;19;20014;-74
2023/09/07 04:43:46;;;;;;;18.40;13.77;;;21.90;99.90;;;;;;4592428;19;20011;-73
2023/09/07 04:45:20;;;;;;;18.58;12.57;;;21.80;99.90;;;;;;4592702;19;19998;-73
2023/09/07 04:46:56;;;;;;;17.33;12.43;;;21.90;99.90;;;;;;4592621;19;20006;-73
2023/09/07 04:48:32;;;;;;;14.25;10.60;;;21.90;99.90;;;;;;4592696;19;20323;-73
2023/09/07 04:50:08;;;;;;;15.30;10.50;;;21.80;99.90;;;;;;4588819;19;20033;-73
2023/09/07 04:51:42;;;;;;;15.48;9.73;;;21.90;99.90;;;;;;4592525;19;20452;-72
2023/09/07 04:53:18;;;;;;;13.68;8.65;;;21.90;99.90;;;;;;4592582;19;20010;-73
2023/09/07 04:54:52;;;;;;;10.93;7.78;;;21.90;99.90;;;;;;4592007;19;20066;-73
2023/09/07 04:56:33;;;;;;;8.95;8.05;;;21.90;99.90;;;;;;4591803;19;20086;-73
2023/09/07 04:58:14;;;;;;;13.75;7.97;;;21.90;99.90;;;;;;4590858;19;20018;-73
2023/09/07 04:59:48;;;;;;;9.02;7.85;;;21.90;99.90;;;;;;4591055;19;20002;-73
2023/09/07 05:01:22;;;;;;;8.65;6.82;;;21.90;99.90;;;;;;4592388;19;20003;-73
2023/09/07 05:02:58;;;;;;;13.20;7.68;;;21.90;99.90;;;;;;4592755;19;20010;-73
2023/09/07 05:04:32;;;;;;;9.35;6.90;;;21.80;99.90;;;;;;4591470;19;20066;-73
2023/09/07 05:06:06;;;;;;;9.50;7.32;;;21.80;99.90;;;;;;4592244;19;20348;-73
2023/09/07 05:07:41;;;;;;;10.77;7.00;;;21.80;99.90;;;;;;4592292;19;20429;-73
2023/09/07 05:09:17;;;;;;;8.35;6.93;;;21.80;99.90;;;;;;4591244;19;20022;-73
2023/09/07 05:10:59;;;;;;;11.85;7.97;;;21.80;99.90;;;;;;4592027;19;20086;-73
2023/09/07 05:12:35;;;;;;;7.97;7.00;;;21.80;99.90;;;;;;4591150;19;20082;-74
2023/09/07 05:14:09;;;;;;;10.05;6.88;;;21.80;99.90;;;;;;4587949;19;20002;-73
2023/09/07 05:15:49;;;;;;;8.93;6.88;;;21.80;99.90;;;;;;4591018;19;20466;-75
2023/09/07 05:17:25;;;;;;;7.65;6.40;;;21.80;99.90;;;;;;4592564;19;20283;-75
2023/09/07 05:18:59;;;;;;;8.55;6.68;;;21.80;99.90;;;;;;4592434;19;19995;-76
2023/09/07 05:20:34;;;;;;;8.18;6.97;;;21.80;99.90;;;;;;4590597;19;20334;-73
2023/09/07 05:22:11;;;;;;;8.50;6.88;;;21.80;99.90;;;;;;4592384;19;20435;-73
2023/09/07 05:23:46;;;;;;;9.02;7.18;;;21.80;99.90;;;;;;4590587;19;20006;-74
2023/09/07 05:25:21;;;;;;;11.23;7.97;;;21.80;99.90;;;;;;4592126;19;20003;-73
2023/09/07 05:26:56;;;;;;;10.80;7.40;;;21.80;99.90;;;;;;4591979;19;20026;-73
2023/09/07 05:28:30;;;;;;;9.80;7.38;;;21.80;99.90;;;;;;4592069;19;20015;-73
2023/09/07 05:30:06;;;;;;;10.80;7.63;;;21.80;99.90;;;;;;4589666;19;20002;-73
2023/09/07 05:31:41;;;;;;;10.25;7.45;;;21.80;99.90;;;;;;4590487;19;20010;-73
2023/09/07 05:33:16;;;;;;;7.93;6.97;;;21.80;99.90;;;;;;4591444;19;20002;-73
2023/09/07 05:34:51;;;;;;;8.63;7.35;;;21.80;99.90;;;;;;4590686;19;20005;-73
2023/09/07 05:36:27;;;;;;;8.93;7.10;;;21.80;99.90;;;;;;4591912;19;20078;-75
2023/09/07 05:38:04;;;;;;;9.50;6.88;;;21.80;99.90;;;;;;4592008;19;20006;-75
2023/09/07 05:39:39;;;;;;;9.05;7.38;;;21.80;99.90;;;;;;4589982;19;20007;-74
2023/09/07 05:41:16;;;;;;;10.32;7.63;;;21.80;99.90;;;;;;4591553;19;20062;-75
2023/09/07 05:42:51;;;;;;;11.80;8.45;;;21.80;99.90;;;;;;4591217;19;20083;-73
2023/09/07 05:44:25;;;;;;;8.80;6.93;;;21.80;99.90;;;;;;4590457;19;20021;-74
2023/09/07 05:46:00;;;;;;;9.73;7.45;;;21.80;99.90;;;;;;4590331;19;20010;-73
2023/09/07 05:47:34;;;;;;;9.07;6.88;;;21.70;99.90;;;;;;4591163;19;19998;-73
2023/09/07 05:49:08;;;;;;;8.75;6.88;;;21.70;99.90;;;;;;4591375;19;20295;-73
2023/09/07 05:50:43;;;;;;;12.35;7.60;;;21.80;99.90;;;;;;4591960;19;20007;-73
2023/09/07 05:52:20;;;;;;;8.90;6.40;;;21.70;99.90;;;;;;4591496;19;20031;-73
2023/09/07 05:53:55;;;;;;;8.57;7.50;;;21.70;99.90;;;;;;4591691;19;20440;-73
2023/09/07 05:55:32;;;;;;;14.98;8.13;;;21.70;99.90;;;;;;4591799;19;20006;-73
2023/09/07 05:57:06;;;;;;;8.10;6.82;;;21.70;99.90;;;;;;4591730;19;20020;-73
2023/09/07 05:58:40;;;;;;;8.60;7.45;;;21.70;99.90;;;;;;4591397;19;20413;-73
2023/09/07 06:00:16;;;;;;;10.15;7.03;;;21.70;99.90;;;;;;4590711;19;20002;-74
2023/09/07 06:01:51;;;;;;;7.88;7.07;;;21.70;99.90;;;;;;4594729;19;20011;-74
2023/09/07 06:03:25;;;;;;;9.55;6.57;;;21.70;99.90;;;;;;4594683;19;20056;-74
2023/09/07 06:05:00;;;;;;;11.45;7.82;;;21.70;99.90;;;;;;4595824;19;20009;-74
2023/09/07 06:06:35;;;;;;;8.82;6.90;;;21.70;99.90;;;;;;4595950;19;20006;-74
2023/09/07 06:08:09;;;;;;;7.47;6.72;;;21.80;99.90;;;;;;4595913;19;20003;-73
2023/09/07 06:09:45;;;;;;;8.05;6.72;;;21.80;99.90;;;;;;4595099;19;20014;-73
2023/09/07 06:11:19;;;;;;;8.40;6.78;;;21.80;99.90;;;;;;4595938;19;20010;-75
2023/09/07 06:12:53;;;;;;;8.13;6.75;;;21.80;99.90;;;;;;4596228;19;20006;-73
2023/09/07 06:14:30;;;;;;;11.57;6.97;;;21.80;99.90;;;;;;4594534;19;20007;-72
2023/09/07 06:16:04;;;;;;;7.70;6.63;;;21.80;99.90;;;;;;4594371;19;20011;-73
2023/09/07 06:17:39;;;;;;;7.90;6.97;;;21.80;99.90;;;;;;4595461;19;20020;-75
2023/09/07 06:19:14;;;;;;;8.65;6.43;;;21.80;99.90;;;;;;4594172;19;20016;-73
2023/09/07 06:20:48;;;;;;;7.10;6.40;;;21.80;99.90;;;;;;4595223;19;20009;-73
2023/09/07 06:22:23;;;;;;;9.70;6.50;;;21.80;99.90;;;;;;4595811;19;20002;-74
2023/09/07 06:23:59;;;;;;;9.43;6.80;;;21.80;99.90;;;;;;4594985;19;20007;-73
2023/09/07 06:25:33;;;;;;;8.13;6.82;;;21.80;99.90;;;;;;4595507;19;20003;-73
2023/09/07 06:27:07;;;;;;;8.55;6.38;;;21.80;99.90;;;;;;4594112;19;20006;-73
2023/09/07 06:28:43;;;;;;;6.50;5.90;;;21.90;99.90;;;;;;4595123;19;20367;-73
2023/09/07 06:30:17;;;;;;;7.18;6.45;;;22.00;99.90;;;;;;4594339;19;20002;-73
2023/09/07 06:31:52;;;;;;;8.50;7.35;;;22.00;99.90;;;;;;4595377;19;20026;-73
2023/09/07 06:33:27;;;;;;;7.38;6.32;;;22.00;99.90;;;;;;4595458;19;20007;-73
2023/09/07 06:35:02;;;;;;;8.13;7.32;;;21.90;99.90;;;;;;4595627;19;20334;-73
2023/09/07 06:36:38;;;;;;;8.93;6.90;;;21.90;99.90;;;;;;4595327;19;20093;-73
2023/09/07 06:38:13;;;;;;;7.80;7.00;;;21.90;99.90;;;;;;4595618;19;20313;-73
2023/09/07 06:39:47;;;;;;;7.55;6.60;;;21.90;99.90;;;;;;4594393;19;20009;-73
2023/09/07 06:41:21;;;;;;;9.88;7.28;;;21.90;99.90;;;;;;4593846;19;20058;-73
2023/09/07 06:42:57;;;;;;;7.90;6.85;;;21.90;99.90;;;;;;4595026;19;19994;-73
2023/09/07 06:44:34;;;;;;;8.77;7.07;;;21.90;99.90;;;;;;4593981;19;20314;-73
2023/09/07 06:46:08;;;;;;;9.57;6.65;;;21.80;99.90;;;;;;4594175;19;20007;-73
2023/09/07 06:47:44;;;;;;;6.82;6.13;;;21.80;99.90;;;;;;4594831;19;20508;-73
2023/09/07 06:49:19;;;;;;;7.68;6.80;;;21.90;99.90;;;;;;4594997;19;20010;-73
2023/09/07 06:50:53;;;;;;;7.88;7.03;;;21.80;99.90;;;;;;4595075;19;20516;-73
2023/09/07 06:52:28;;;;;;;8.02;6.55;;;21.80;99.90;;;;;;4595009;19;20080;-73
2023/09/07 06:54:02;;;;;;;7.97;6.65;;;21.80;99.90;;;;;;4594951;19;20006;-74
2023/09/07 06:55:36;;;;;;;7.45;6.75;;;21.80;99.90;;;;;;4595183;19;20311;-73
2023/09/07 06:57:12;;;;;;;7.18;6.47;;;21.80;99.90;;;;;;4595229;19;20007;-73
2023/09/07 06:58:46;;;;;;;7.88;6.05;;;21.90;99.90;;;;;;4594849;19;20006;-73
2023/09/07 07:00:21;;;;;;;6.80;6.10;;;22.00;99.90;;;;;;4593449;19;20421;-73
2023/09/07 07:01:59;;;;;;;7.72;5.97;;;22.10;99.90;;;;;;4593467;19;20030;-74
2023/09/07 07:03:34;;;;;;;7.03;5.78;;;22.10;99.90;;;;;;4594383;19;20077;-77
2023/09/07 07:05:09;;;;;;;7.03;6.32;;;22.10;99.90;;;;;;4594822;19;20002;-71
2023/09/07 07:06:44;;;;;;;9.73;8.73;;;22.10;99.90;;;;;;4594987;19;20038;-73
2023/09/07 07:08:19;;;;;;;10.68;9.77;;;21.70;99.90;;;;;;4593218;19;20083;-74
2023/09/07 07:09:54;;;;;;;11.63;10.57;;;19.90;99.90;;;;;;4593323;19;20074;-73
2023/09/07 07:11:30;;;;;;;11.48;10.27;;;19.10;99.90;;;;;;4594671;19;20022;-73
2023/09/07 07:13:05;;;;;;;10.63;9.50;;;18.80;99.90;;;;;;4592283;19;20009;-73
2023/09/07 07:14:39;;;;;;;12.30;11.20;;;18.80;99.90;;;;;;4594572;19;20098;-73
2023/09/07 07:16:16;;;;;;;11.32;10.25;;;18.70;99.90;;;;;;4594570;19;20367;-73
2023/09/07 07:17:50;;;;;;;10.95;9.95;;;18.70;99.90;;;;;;4594704;19;20345;-73
2023/09/07 07:19:25;;;;;;;12.50;11.30;;;18.70;99.90;;;;;;4593640;19;20018;-73
2023/09/07 07:21:02;;;;;;;11.40;10.30;;;18.70;99.90;;;;;;4594418;19;20006;-73
2023/09/07 07:22:36;;;;;;;12.25;11.05;;;18.80;99.90;;;;;;4594431;19;20007;-73
2023/09/07 07:24:11;;;;;;;11.82;10.70;;;18.80;99.90;;;;;;4593610;19;20074;-73
2023/09/07 07:25:47;;;;;;;12.25;11.15;;;18.80;99.90;;;;;;4594295;19;20006;-73
2023/09/07 07:27:21;;;;;;;11.85;10.75;;;18.80;99.90;;;;;;4594234;19;20426;-73
2023/09/07 07:28:57;;;;;;;12.23;11.05;;;18.90;99.90;;;;;;4594197;19;20033;-73
2023/09/07 07:30:40;;;;;;;12.07;10.88;;;18.90;99.90;;;;;;4591553;19;19998;-73
2023/09/07 07:32:14;;;;;;;11.98;10.73;;;18.90;99.90;;;;;;4594062;19;20002;-73
2023/09/07 07:33:49;;;;;;;11.52;10.27;;;18.90;99.90;;;;;;4594358;19;20017;-73
2023/09/07 07:35:26;;;;;;;11.77;10.75;;;19.00;99.90;;;;;;4594193;19;20006;-73
2023/09/07 07:37:01;;;;;;;11.45;10.35;;;19.10;99.90;;;;;;4594055;19;20035;-73
2023/09/07 07:38:36;;;;;;;11.40;10.25;;;19.10;99.90;;;;;;4594263;19;20002;-73
2023/09/07 07:40:12;;;;;;;11.77;10.68;;;19.10;99.90;;;;;;4592977;19;20015;-73
2023/09/07 07:41:47;;;;;;;12.35;10.98;;;19.20;99.90;;;;;;4592488;19;20045;-73
2023/09/07 07:43:22;;;;;;;10.75;9.75;;;19.20;99.90;;;;;;4593813;19;20006;-73
2023/09/07 07:44:58;;;;;;;11.30;10.20;;;19.20;99.90;;;;;;4592557;19;20006;-73
2023/09/07 07:46:33;;;;;;;10.05;9.00;;;19.20;99.90;;;;;;4593853;19;20010;-73
2023/09/07 07:48:08;;;;;;;11.63;10.52;;;19.20;99.90;;;;;;4593890;19;20015;-73
2023/09/07 07:49:45;;;;;;;11.38;10.38;;;19.30;99.90;;;;;;4593249;19;20433;-73
2023/09/07 07:51:19;;;;;;;10.55;9.23;;;19.30;99.90;;;;;;4592760;19;20003;-73
2023/09/07 07:52:54;;;;;;;11.18;10.07;;;19.30;99.90;;;;;;4593630;19;20009;-74
2023/09/07 07:54:30;;;;;;;11.65;10.52;;;19.30;99.90;;;;;;4593828;19;20009;-73
2023/09/07 07:56:05;;;;;;;10.95;9.63;;;19.40;99.90;;;;;;4592145;19;20082;-73
2023/09/07 07:57:40;;;;;;;11.55;10.45;;;19.40;99.90;;;;;;4592316;19;20037;-74
2023/09/07 07:59:15;;;;;;;11.15;9.25;;;19.50;99.90;;;;;;4593430;19;20374;-74
2023/09/07 08:00:50;;;;;;;10.68;9.50;;;19.50;99.90;;;;;;4593840;19;20017;-73
2023/09/07 08:02:25;;;;;;;10.82;9.70;;;19.50;99.90;;;;;;4593583;19;20048;-74
2023/09/07 08:04:00;;;;;;;11.15;10.05;;;19.60;99.90;;;;;;4593116;19;20014;-73
2023/09/07 08:05:35;;;;;;;10.38;9.45;;;19.60;99.90;;;;;;4593451;19;20002;-73
2023/09/07 08:07:09;;;;;;;13.75;11.07;;;19.60;99.90;;;;;;4593450;19;19999;-73
2023/09/07 08:08:46;;;;;;;11.20;9.88;;;19.60;99.90;;;;;;4593740;19;20003;-74
2023/09/07 08:10:20;;;;;;;10.90;9.80;;;19.60;99.90;;;;;;4592577;19;20002;-73
2023/09/07 08:11:55;;;;;;;11.57;10.57;;;19.60;99.90;;;;;;4593595;19;20005;-73
2023/09/07 08:13:31;;;;;;;11.52;10.43;;;19.70;99.90;;;;;;4592056;19;20014;-74
2023/09/07 08:15:06;;;;;;;10.20;9.00;;;19.70;99.90;;;;;;4592963;19;20086;-74
2023/09/07 08:16:40;;;;;;;10.48;9.38;;;19.70;99.90;;;;;;4593505;19;20003;-74
2023/09/07 08:18:15;;;;;;;10.27;9.07;;;19.70;99.90;;;;;;4593511;19;20021;-74
2023/09/07 08:19:55;;;;;;;11.52;10.43;;;19.80;99.90;;;;;;4592379;19;20010;-74
2023/09/07 08:21:31;;;;;;;10.35;9.35;;;19.80;99.90;;;;;;4591731;19;20007;-74
2023/09/07 08:23:08;;;;;;;10.32;9.30;;;19.90;99.90;;;;;;4592874;19;20314;-75
2023/09/07 08:24:42;;;;;;;11.25;10.20;;;19.90;99.90;;;;;;4590281;19;20009;-74
2023/09/07 08:26:17;;;;;;;9.68;8.77;;;19.90;99.90;;;;;;4593029;19;20322;-74
2023/09/07 08:27:57;;;;;;;9.80;8.90;;;20.00;99.90;;;;;;4593160;19;20003;-74
2023/09/07 08:29:32;;;;;;;9.65;8.75;;;20.00;99.90;;;;;;4592620;19;20305;-74